Clearwater, Canada
Current Conditions -  °F | °C
As of 9:00 PM on Sunday 19 Oct 2014 (Local Time) from CYKA Reporting Station
Scattered Clouds Scattered Clouds  
Wind Chill: 68°   Ceiling: Unl
Heat Index: 68°   Visibility: 40mi
Dew Point: 45°   Wind: 16mph
Humidity: 43%   Direction: 130°SE
Pressure: 29.63"   Gusts: NA
Location:  51.65°N, 120.03°W
Report Text: CYKA 200400Z 13014KT 40SM SCT250 20/07 A2963 RMK CI3 SLP033 DENSITY ALT 2200FT
Loading
Personal Weather Stations






























Interactive Weather Map
Tropical Storm Tracking
New forecast layout! Learn more

10-Day Weather Forecast

Advertisements
Track Severe Weather on mobile